Osage River (Missouri), Bagnell (06926000)

StateMissouriLatestUnknown (1280 cfs)
RiverOsage RiverRatingObservedEstimated
Updated2022-09-25 20:15 (1 hour ago)Flood - The river is flooding. Obstacles can be treacherous or deadly. The river should be avoided at this stage for casual trips and definitely for the inexperienced. Trips should be attempted only with protective gear and equipment.Flood(none)(none)
Discharge1280 cfs (median: 1150 cfs)High - The river is high and potentially dangerous, especially for the young and / or inexperienced. Normal stream obstacles are sometimes difficult to navigate. Extended distances can be attempted, but canoe travel may not be advisable.High(none)(none)
Height1.77 feetGood - Conditions are ideal for a canoe or kayak. Boats typically will drag on fewer than one-quarter of riffles, if at all, and portages are unnecessary or rare. Normal float lengths can be attempted without a problem.Good(none)(none)
TrendSteady (rising over 24 hours)Low - River is low but can still be floated. Some riffles are okay but most come with significant dragging and might need a portage. Float lengths should be reduced to accommodate low flow, dragging, and portages.Low(none)(none)
USGSExternal icon USGS Site (External icon Duck Duck Go Maps)Poor - River is too low to float comfortably. Most or all riffles will drag or must be portaged and some obstacles (such as slick shelf rock) cause undue problems. Avoid the river at this stage for casual paddling trips.Poor(none)(none)

Trending Data

Plot Image

Trips for Osage River (Missouri), Bagnell (06926000)

DateStartEndDistanceConditionDischargeHeightFishingDetails

A total of 0 rows are displayed.

Condition Descriptions

Fishing Conditions

Fish Species

Notes

Classic Trip List

The classic River Trips application is still available for use. It is updated with the new system using a data retrofit. It is no longer maintained. The original River Trips application is no longer updated (as of 1 Dec 2016) but can be checked for errors or for the condition of the data before it was converted to the new system.

Gauge Data Table

ObservationHeightDischargeMaximum
Discharge
Minimum
Discharge
Mean
Discharge
P05P10P20P25P50
(Median)
P75P80P90P95
2022-09-25 20:15 1.77 1280 58100 (1993) 343 (1971) 6730 390 460 582 633 1150 6130 9790 26200 36000
2022-09-25 19:15 1.77 1280 58100 (1993) 343 (1971) 6730 390 460 582 633 1150 6130 9790 26200 36000
2022-09-25 18:15 1.68 1200 58100 (1993) 343 (1971) 6730 390 460 582 633 1150 6130 9790 26200 36000
2022-09-25 17:15 1.67 1190 58100 (1993) 343 (1971) 6730 390 460 582 633 1150 6130 9790 26200 36000
2022-09-25 16:15 1.69 1210 58100 (1993) 343 (1971) 6730 390 460 582 633 1150 6130 9790 26200 36000
2022-09-25 15:15 1.64 1160 58100 (1993) 343 (1971) 6730 390 460 582 633 1150 6130 9790 26200 36000
2022-09-25 14:15 1.67 1190 58100 (1993) 343 (1971) 6730 390 460 582 633 1150 6130 9790 26200 36000
2022-09-25 13:15 1.61 1130 58100 (1993) 343 (1971) 6730 390 460 582 633 1150 6130 9790 26200 36000
2022-09-25 12:15 1.65 1170 58100 (1993) 343 (1971) 6730 390 460 582 633 1150 6130 9790 26200 36000
2022-09-25 11:15 1.63 1150 58100 (1993) 343 (1971) 6730 390 460 582 633 1150 6130 9790 26200 36000
2022-09-25 10:15 1.60 1130 58100 (1993) 343 (1971) 6730 390 460 582 633 1150 6130 9790 26200 36000
2022-09-25 09:15 1.63 1150 58100 (1993) 343 (1971) 6730 390 460 582 633 1150 6130 9790 26200 36000
2022-09-25 08:15 1.73 1240 58100 (1993) 343 (1971) 6730 390 460 582 633 1150 6130 9790 26200 36000
2022-09-25 07:15 1.74 1250 58100 (1993) 343 (1971) 6730 390 460 582 633 1150 6130 9790 26200 36000
2022-09-25 06:15 1.74 1250 58100 (1993) 343 (1971) 6730 390 460 582 633 1150 6130 9790 26200 36000
2022-09-25 05:15 1.74 1250 58100 (1993) 343 (1971) 6730 390 460 582 633 1150 6130 9790 26200 36000
2022-09-25 04:15 1.73 1240 58100 (1993) 343 (1971) 6730 390 460 582 633 1150 6130 9790 26200 36000
2022-09-25 03:15 1.73 1240 58100 (1993) 343 (1971) 6730 390 460 582 633 1150 6130 9790 26200 36000
2022-09-25 02:15 1.73 1240 58100 (1993) 343 (1971) 6730 390 460 582 633 1150 6130 9790 26200 36000
2022-09-25 01:15 1.73 1240 58100 (1993) 343 (1971) 6730 390 460 582 633 1150 6130 9790 26200 36000
2022-09-25 00:15 1.73 1240 58100 (1993) 343 (1971) 6730 390 460 582 633 1150 6130 9790 26200 36000
2022-09-24 23:15 1.73 1240 49200 (1961) 330 (1931) 6340 372 436 593 670 1240 5020 8360 25300 34900
2022-09-24 22:15 1.72 1230 49200 (1961) 330 (1931) 6340 372 436 593 670 1240 5020 8360 25300 34900
2022-09-24 21:15 1.72 1230 49200 (1961) 330 (1931) 6340 372 436 593 670 1240 5020 8360 25300 34900
2022-09-24 20:15 1.71 1220 49200 (1961) 330 (1931) 6340 372 436 593 670 1240 5020 8360 25300 34900
2022-09-24 19:15 1.71 1220 49200 (1961) 330 (1931) 6340 372 436 593 670 1240 5020 8360 25300 34900
2022-09-24 18:15 1.70 1210 49200 (1961) 330 (1931) 6340 372 436 593 670 1240 5020 8360 25300 34900
2022-09-24 17:15 1.70 1210 49200 (1961) 330 (1931) 6340 372 436 593 670 1240 5020 8360 25300 34900
2022-09-24 16:15 1.70 1210 49200 (1961) 330 (1931) 6340 372 436 593 670 1240 5020 8360 25300 34900
2022-09-24 15:15 1.63 1150 49200 (1961) 330 (1931) 6340 372 436 593 670 1240 5020 8360 25300 34900
2022-09-24 14:15 1.70 1210 49200 (1961) 330 (1931) 6340 372 436 593 670 1240 5020 8360 25300 34900
2022-09-24 13:15 1.71 1220 49200 (1961) 330 (1931) 6340 372 436 593 670 1240 5020 8360 25300 34900
2022-09-24 12:15 1.64 1160 49200 (1961) 330 (1931) 6340 372 436 593 670 1240 5020 8360 25300 34900
2022-09-24 11:15 1.64 1160 49200 (1961) 330 (1931) 6340 372 436 593 670 1240 5020 8360 25300 34900
2022-09-24 10:15 1.70 1210 49200 (1961) 330 (1931) 6340 372 436 593 670 1240 5020 8360 25300 34900
2022-09-24 09:15 1.71 1220 49200 (1961) 330 (1931) 6340 372 436 593 670 1240 5020 8360 25300 34900
2022-09-24 08:15 1.73 1240 49200 (1961) 330 (1931) 6340 372 436 593 670 1240 5020 8360 25300 34900
2022-09-24 07:15 1.73 1240 49200 (1961) 330 (1931) 6340 372 436 593 670 1240 5020 8360 25300 34900
2022-09-24 06:15 1.73 1240 49200 (1961) 330 (1931) 6340 372 436 593 670 1240 5020 8360 25300 34900
2022-09-24 05:15 1.74 1250 49200 (1961) 330 (1931) 6340 372 436 593 670 1240 5020 8360 25300 34900
2022-09-24 04:15 1.74 1250 49200 (1961) 330 (1931) 6340 372 436 593 670 1240 5020 8360 25300 34900
2022-09-24 03:15 1.74 1250 49200 (1961) 330 (1931) 6340 372 436 593 670 1240 5020 8360 25300 34900
2022-09-24 02:15 1.73 1240 49200 (1961) 330 (1931) 6340 372 436 593 670 1240 5020 8360 25300 34900
2022-09-24 01:15 1.74 1250 49200 (1961) 330 (1931) 6340 372 436 593 670 1240 5020 8360 25300 34900
2022-09-24 00:15 1.74 1250 49200 (1961) 330 (1931) 6340 372 436 593 670 1240 5020 8360 25300 34900
2022-09-23 23:15 1.74 1250 56700 (1965) 305 (1971) 6330 396 458 667 724 1480 5650 9170 19500 34300
2022-09-23 22:15 1.74 1250 56700 (1965) 305 (1971) 6330 396 458 667 724 1480 5650 9170 19500 34300
2022-09-23 21:15 1.75 1260 56700 (1965) 305 (1971) 6330 396 458 667 724 1480 5650 9170 19500 34300
2022-09-23 20:15 1.74 1250 56700 (1965) 305 (1971) 6330 396 458 667 724 1480 5650 9170 19500 34300
2022-09-23 19:15 1.75 1260 56700 (1965) 305 (1971) 6330 396 458 667 724 1480 5650 9170 19500 34300
2022-09-23 18:15 1.74 1250 56700 (1965) 305 (1971) 6330 396 458 667 724 1480 5650 9170 19500 34300
2022-09-23 17:15 1.66 1180 56700 (1965) 305 (1971) 6330 396 458 667 724 1480 5650 9170 19500 34300
2022-09-23 16:15 1.64 1160 56700 (1965) 305 (1971) 6330 396 458 667 724 1480 5650 9170 19500 34300
2022-09-23 15:15 1.73 1240 56700 (1965) 305 (1971) 6330 396 458 667 724 1480 5650 9170 19500 34300
2022-09-23 14:15 1.72 1230 56700 (1965) 305 (1971) 6330 396 458 667 724 1480 5650 9170 19500 34300
2022-09-23 13:15 1.62 1140 56700 (1965) 305 (1971) 6330 396 458 667 724 1480 5650 9170 19500 34300
2022-09-23 12:15 1.57 1100 56700 (1965) 305 (1971) 6330 396 458 667 724 1480 5650 9170 19500 34300
2022-09-23 11:15 1.58 1110 56700 (1965) 305 (1971) 6330 396 458 667 724 1480 5650 9170 19500 34300
2022-09-23 10:15 1.61 1130 56700 (1965) 305 (1971) 6330 396 458 667 724 1480 5650 9170 19500 34300
2022-09-23 09:15 1.62 1140 56700 (1965) 305 (1971) 6330 396 458 667 724 1480 5650 9170 19500 34300
2022-09-23 08:15 1.62 1140 56700 (1965) 305 (1971) 6330 396 458 667 724 1480 5650 9170 19500 34300
2022-09-23 07:15 1.67 1190 56700 (1965) 305 (1971) 6330 396 458 667 724 1480 5650 9170 19500 34300
2022-09-23 06:15 1.68 1200 56700 (1965) 305 (1971) 6330 396 458 667 724 1480 5650 9170 19500 34300
2022-09-23 05:15 1.70 1210 56700 (1965) 305 (1971) 6330 396 458 667 724 1480 5650 9170 19500 34300
2022-09-23 04:15 1.70 1210 56700 (1965) 305 (1971) 6330 396 458 667 724 1480 5650 9170 19500 34300
2022-09-23 03:15 1.69 1210 56700 (1965) 305 (1971) 6330 396 458 667 724 1480 5650 9170 19500 34300
2022-09-23 02:15 1.66 1180 56700 (1965) 305 (1971) 6330 396 458 667 724 1480 5650 9170 19500 34300
2022-09-23 01:15 1.65 1170 56700 (1965) 305 (1971) 6330 396 458 667 724 1480 5650 9170 19500 34300
2022-09-23 00:15 1.66 1180 56700 (1965) 305 (1971) 6330 396 458 667 724 1480 5650 9170 19500 34300
2022-09-22 23:15 1.66 1180 63600 (1951) 310 (1971) 6290 404 450 532 624 1450 5430 8370 19200 34600
2022-09-22 22:15 1.67 1190 63600 (1951) 310 (1971) 6290 404 450 532 624 1450 5430 8370 19200 34600
2022-09-22 21:15 1.59 1120 63600 (1951) 310 (1971) 6290 404 450 532 624 1450 5430 8370 19200 34600
2022-09-22 20:15 1.58 1110 63600 (1951) 310 (1971) 6290 404 450 532 624 1450 5430 8370 19200 34600
2022-09-22 19:15 1.67 1190 63600 (1951) 310 (1971) 6290 404 450 532 624 1450 5430 8370 19200 34600
2022-09-22 18:15 1.67 1190 63600 (1951) 310 (1971) 6290 404 450 532 624 1450 5430 8370 19200 34600
2022-09-22 17:15 1.57 1100 63600 (1951) 310 (1971) 6290 404 450 532 624 1450 5430 8370 19200 34600
2022-09-22 16:15 1.58 1110 63600 (1951) 310 (1971) 6290 404 450 532 624 1450 5430 8370 19200 34600
2022-09-22 15:15 1.55 1080 63600 (1951) 310 (1971) 6290 404 450 532 624 1450 5430 8370 19200 34600
2022-09-22 14:15 1.59 1120 63600 (1951) 310 (1971) 6290 404 450 532 624 1450 5430 8370 19200 34600
2022-09-22 13:15 1.55 1080 63600 (1951) 310 (1971) 6290 404 450 532 624 1450 5430 8370 19200 34600
2022-09-22 12:15 1.60 1130 63600 (1951) 310 (1971) 6290 404 450 532 624 1450 5430 8370 19200 34600
2022-09-22 11:15 1.61 1130 63600 (1951) 310 (1971) 6290 404 450 532 624 1450 5430 8370 19200 34600
2022-09-22 10:15 1.70 1210 63600 (1951) 310 (1971) 6290 404 450 532 624 1450 5430 8370 19200 34600
2022-09-22 09:15 1.72 1230 63600 (1951) 310 (1971) 6290 404 450 532 624 1450 5430 8370 19200 34600
2022-09-22 08:15 1.74 1250 63600 (1951) 310 (1971) 6290 404 450 532 624 1450 5430 8370 19200 34600
2022-09-22 07:15 1.79 1300 63600 (1951) 310 (1971) 6290 404 450 532 624 1450 5430 8370 19200 34600
2022-09-22 06:15 1.82 1320 63600 (1951) 310 (1971) 6290 404 450 532 624 1450 5430 8370 19200 34600
2022-09-22 05:15 1.83 1330 63600 (1951) 310 (1971) 6290 404 450 532 624 1450 5430 8370 19200 34600
2022-09-22 04:15 1.83 1330 63600 (1951) 310 (1971) 6290 404 450 532 624 1450 5430 8370 19200 34600
2022-09-22 03:15 1.83 1330 63600 (1951) 310 (1971) 6290 404 450 532 624 1450 5430 8370 19200 34600
2022-09-22 02:15 1.77 1280 63600 (1951) 310 (1971) 6290 404 450 532 624 1450 5430 8370 19200 34600
2022-09-22 01:15 1.73 1240 63600 (1951) 310 (1971) 6290 404 450 532 624 1450 5430 8370 19200 34600
2022-09-22 00:15 1.78 1290 63600 (1951) 310 (1971) 6290 404 450 532 624 1450 5430 8370 19200 34600
2022-09-21 23:15 1.81 1310 72400 (1951) 314 (1971) 6190 375 500 638 697 1170 8280 9460 19400 33300
2022-09-21 22:15 1.80 1300 72400 (1951) 314 (1971) 6190 375 500 638 697 1170 8280 9460 19400 33300
2022-09-21 21:15 1.79 1300 72400 (1951) 314 (1971) 6190 375 500 638 697 1170 8280 9460 19400 33300
2022-09-21 20:15 1.78 1290 72400 (1951) 314 (1971) 6190 375 500 638 697 1170 8280 9460 19400 33300
2022-09-21 19:15 1.74 1250 72400 (1951) 314 (1971) 6190 375 500 638 697 1170 8280 9460 19400 33300
2022-09-21 18:15 1.68 1200 72400 (1951) 314 (1971) 6190 375 500 638 697 1170 8280 9460 19400 33300
2022-09-21 17:15 1.71 1220 72400 (1951) 314 (1971) 6190 375 500 638 697 1170 8280 9460 19400 33300
2022-09-21 16:15 1.73 1240 72400 (1951) 314 (1971) 6190 375 500 638 697 1170 8280 9460 19400 33300
2022-09-21 15:15 1.81 1310 72400 (1951) 314 (1971) 6190 375 500 638 697 1170 8280 9460 19400 33300
2022-09-21 14:15 1.68 1200 72400 (1951) 314 (1971) 6190 375 500 638 697 1170 8280 9460 19400 33300
2022-09-21 13:15 1.70 1210 72400 (1951) 314 (1971) 6190 375 500 638 697 1170 8280 9460 19400 33300
2022-09-21 12:15 1.70 1210 72400 (1951) 314 (1971) 6190 375 500 638 697 1170 8280 9460 19400 33300
2022-09-21 11:15 1.69 1210 72400 (1951) 314 (1971) 6190 375 500 638 697 1170 8280 9460 19400 33300
2022-09-21 10:15 1.73 1240 72400 (1951) 314 (1971) 6190 375 500 638 697 1170 8280 9460 19400 33300
2022-09-21 09:15 1.77 1280 72400 (1951) 314 (1971) 6190 375 500 638 697 1170 8280 9460 19400 33300
2022-09-21 08:15 1.77 1280 72400 (1951) 314 (1971) 6190 375 500 638 697 1170 8280 9460 19400 33300
2022-09-21 07:15 1.78 1290 72400 (1951) 314 (1971) 6190 375 500 638 697 1170 8280 9460 19400 33300
2022-09-21 06:15 1.79 1300 72400 (1951) 314 (1971) 6190 375 500 638 697 1170 8280 9460 19400 33300
2022-09-21 05:15 1.79 1300 72400 (1951) 314 (1971) 6190 375 500 638 697 1170 8280 9460 19400 33300
2022-09-21 04:15 1.79 1300 72400 (1951) 314 (1971) 6190 375 500 638 697 1170 8280 9460 19400 33300
2022-09-21 03:15 1.80 1300 72400 (1951) 314 (1971) 6190 375 500 638 697 1170 8280 9460 19400 33300
2022-09-21 02:15 1.79 1300 72400 (1951) 314 (1971) 6190 375 500 638 697 1170 8280 9460 19400 33300
2022-09-21 01:15 1.78 1290 72400 (1951) 314 (1971) 6190 375 500 638 697 1170 8280 9460 19400 33300
2022-09-21 00:15 1.77 1280 72400 (1951) 314 (1971) 6190 375 500 638 697 1170 8280 9460 19400 33300
2022-09-20 23:15 1.77 1280 79400 (1951) 329 (1971) 6330 398 532 712 797 2120 6470 8000 19000 33000
2022-09-20 22:15 1.76 1270 79400 (1951) 329 (1971) 6330 398 532 712 797 2120 6470 8000 19000 33000
2022-09-20 21:15 1.75 1260 79400 (1951) 329 (1971) 6330 398 532 712 797 2120 6470 8000 19000 33000
2022-09-20 20:15 1.75 1260 79400 (1951) 329 (1971) 6330 398 532 712 797 2120 6470 8000 19000 33000
2022-09-20 19:15 1.74 1250 79400 (1951) 329 (1971) 6330 398 532 712 797 2120 6470 8000 19000 33000
2022-09-20 18:15 1.75 1260 79400 (1951) 329 (1971) 6330 398 532 712 797 2120 6470 8000 19000 33000
2022-09-20 17:15 1.76 1270 79400 (1951) 329 (1971) 6330 398 532 712 797 2120 6470 8000 19000 33000
2022-09-20 16:15 1.66 1180 79400 (1951) 329 (1971) 6330 398 532 712 797 2120 6470 8000 19000 33000
2022-09-20 15:15 1.65 1170 79400 (1951) 329 (1971) 6330 398 532 712 797 2120 6470 8000 19000 33000
2022-09-20 14:15 1.73 1240 79400 (1951) 329 (1971) 6330 398 532 712 797 2120 6470 8000 19000 33000
2022-09-20 13:15 1.68 1200 79400 (1951) 329 (1971) 6330 398 532 712 797 2120 6470 8000 19000 33000
2022-09-20 12:15 1.74 1250 79400 (1951) 329 (1971) 6330 398 532 712 797 2120 6470 8000 19000 33000
2022-09-20 11:15 1.72 1230 79400 (1951) 329 (1971) 6330 398 532 712 797 2120 6470 8000 19000 33000
2022-09-20 10:15 1.71 1220 79400 (1951) 329 (1971) 6330 398 532 712 797 2120 6470 8000 19000 33000
2022-09-20 09:15 1.81 1310 79400 (1951) 329 (1971) 6330 398 532 712 797 2120 6470 8000 19000 33000
2022-09-20 08:15 1.83 1330 79400 (1951) 329 (1971) 6330 398 532 712 797 2120 6470 8000 19000 33000
2022-09-20 07:15 1.84 1340 79400 (1951) 329 (1971) 6330 398 532 712 797 2120 6470 8000 19000 33000
2022-09-20 06:15 1.85 1350 79400 (1951) 329 (1971) 6330 398 532 712 797 2120 6470 8000 19000 33000
2022-09-20 05:15 1.84 1340 79400 (1951) 329 (1971) 6330 398 532 712 797 2120 6470 8000 19000 33000
2022-09-20 04:15 1.84 1340 79400 (1951) 329 (1971) 6330 398 532 712 797 2120 6470 8000 19000 33000
2022-09-20 03:15 1.83 1330 79400 (1951) 329 (1971) 6330 398 532 712 797 2120 6470 8000 19000 33000
2022-09-20 02:15 1.83 1330 79400 (1951) 329 (1971) 6330 398 532 712 797 2120 6470 8000 19000 33000
2022-09-20 01:15 1.82 1320 79400 (1951) 329 (1971) 6330 398 532 712 797 2120 6470 8000 19000 33000
2022-09-20 00:15 1.83 1330 79400 (1951) 329 (1971) 6330 398 532 712 797 2120 6470 8000 19000 33000
2022-09-19 23:15 1.82 1320 85500 (1951) 361 (1971) 6670 493 569 692 749 2120 7050 9700 19600 33400
2022-09-19 22:15 1.82 1320 85500 (1951) 361 (1971) 6670 493 569 692 749 2120 7050 9700 19600 33400
2022-09-19 21:15 1.82 1320 85500 (1951) 361 (1971) 6670 493 569 692 749 2120 7050 9700 19600 33400
2022-09-19 20:15 1.82 1320 85500 (1951) 361 (1971) 6670 493 569 692 749 2120 7050 9700 19600 33400
2022-09-19 19:15 1.83 1330 85500 (1951) 361 (1971) 6670 493 569 692 749 2120 7050 9700 19600 33400
2022-09-19 18:15 1.83 1330 85500 (1951) 361 (1971) 6670 493 569 692 749 2120 7050 9700 19600 33400
2022-09-19 17:15 1.86 1360 85500 (1951) 361 (1971) 6670 493 569 692 749 2120 7050 9700 19600 33400
2022-09-19 16:15 1.98 1490 85500 (1951) 361 (1971) 6670 493 569 692 749 2120 7050 9700 19600 33400
2022-09-19 15:15 2.05 1560 85500 (1951) 361 (1971) 6670 493 569 692 749 2120 7050 9700 19600 33400
2022-09-19 14:15 2.07 1580 85500 (1951) 361 (1971) 6670 493 569 692 749 2120 7050 9700 19600 33400
2022-09-19 13:15 2.23 1750 85500 (1951) 361 (1971) 6670 493 569 692 749 2120 7050 9700 19600 33400
2022-09-19 12:15 2.25 1770 85500 (1951) 361 (1971) 6670 493 569 692 749 2120 7050 9700 19600 33400
2022-09-19 11:15 2.36 1890 85500 (1951) 361 (1971) 6670 493 569 692 749 2120 7050 9700 19600 33400
2022-09-19 10:15 2.60 2160 85500 (1951) 361 (1971) 6670 493 569 692 749 2120 7050 9700 19600 33400
2022-09-19 09:15 2.84 2450 85500 (1951) 361 (1971) 6670 493 569 692 749 2120 7050 9700 19600 33400
2022-09-19 08:15 3.20 2890 85500 (1951) 361 (1971) 6670 493 569 692 749 2120 7050 9700 19600 33400
2022-09-19 07:15 4.31 4480 85500 (1951) 361 (1971) 6670 493 569 692 749 2120 7050 9700 19600 33400
2022-09-19 06:15 2.02 1530 85500 (1951) 361 (1971) 6670 493 569 692 749 2120 7050 9700 19600 33400
2022-09-19 05:15 2.02 1530 85500 (1951) 361 (1971) 6670 493 569 692 749 2120 7050 9700 19600 33400
2022-09-19 04:15 2.01 1520 85500 (1951) 361 (1971) 6670 493 569 692 749 2120 7050 9700 19600 33400
2022-09-19 03:15 2.01 1520 85500 (1951) 361 (1971) 6670 493 569 692 749 2120 7050 9700 19600 33400
2022-09-19 02:15 2.01 1520 85500 (1951) 361 (1971) 6670 493 569 692 749 2120 7050 9700 19600 33400
2022-09-19 01:15 2.01 1520 85500 (1951) 361 (1971) 6670 493 569 692 749 2120 7050 9700 19600 33400
2022-09-19 00:15 2.01 1520 85500 (1951) 361 (1971) 6670 493 569 692 749 2120 7050 9700 19600 33400
2022-09-18 23:15 2.01 1520 89900 (1951) 350 (1971) 7000 412 502 630 718 2410 8140 10800 18600 32300
2022-09-18 22:15 2.00 1510 89900 (1951) 350 (1971) 7000 412 502 630 718 2410 8140 10800 18600 32300
2022-09-18 21:15 2.01 1520 89900 (1951) 350 (1971) 7000 412 502 630 718 2410 8140 10800 18600 32300
2022-09-18 20:15 2.01 1520 89900 (1951) 350 (1971) 7000 412 502 630 718 2410 8140 10800 18600 32300
2022-09-18 19:15 2.02 1530 89900 (1951) 350 (1971) 7000 412 502 630 718 2410 8140 10800 18600 32300
2022-09-18 18:15 1.95 1450 89900 (1951) 350 (1971) 7000 412 502 630 718 2410 8140 10800 18600 32300
2022-09-18 17:15 2.01 1520 89900 (1951) 350 (1971) 7000 412 502 630 718 2410 8140 10800 18600 32300
2022-09-18 16:15 2.02 1530 89900 (1951) 350 (1971) 7000 412 502 630 718 2410 8140 10800 18600 32300
2022-09-18 15:15 1.99 1500 89900 (1951) 350 (1971) 7000 412 502 630 718 2410 8140 10800 18600 32300
2022-09-18 14:15 1.95 1450 89900 (1951) 350 (1971) 7000 412 502 630 718 2410 8140 10800 18600 32300
2022-09-18 13:15 1.97 1470 89900 (1951) 350 (1971) 7000 412 502 630 718 2410 8140 10800 18600 32300
2022-09-18 12:15 1.98 1490 89900 (1951) 350 (1971) 7000 412 502 630 718 2410 8140 10800 18600 32300
2022-09-18 11:15 1.91 1410 89900 (1951) 350 (1971) 7000 412 502 630 718 2410 8140 10800 18600 32300
2022-09-18 10:15 1.89 1390 89900 (1951) 350 (1971) 7000 412 502 630 718 2410 8140 10800 18600 32300
2022-09-18 09:15 1.93 1430 89900 (1951) 350 (1971) 7000 412 502 630 718 2410 8140 10800 18600 32300
2022-09-18 08:15 2.02 1530 89900 (1951) 350 (1971) 7000 412 502 630 718 2410 8140 10800 18600 32300
2022-09-18 07:15 2.02 1530 89900 (1951) 350 (1971) 7000 412 502 630 718 2410 8140 10800 18600 32300
2022-09-18 06:15 2.03 1540 89900 (1951) 350 (1971) 7000 412 502 630 718 2410 8140 10800 18600 32300
2022-09-18 05:15 2.04 1550 89900 (1951) 350 (1971) 7000 412 502 630 718 2410 8140 10800 18600 32300
2022-09-18 04:15 2.04 1550 89900 (1951) 350 (1971) 7000 412 502 630 718 2410 8140 10800 18600 32300
2022-09-18 03:15 2.05 1560 89900 (1951) 350 (1971) 7000 412 502 630 718 2410 8140 10800 18600 32300
2022-09-18 02:15 2.05 1560 89900 (1951) 350 (1971) 7000 412 502 630 718 2410 8140 10800 18600 32300
2022-09-18 01:15 2.05 1560 89900 (1951) 350 (1971) 7000 412 502 630 718 2410 8140 10800 18600 32300
2022-09-18 00:15 2.05 1560 89900 (1951) 350 (1971) 7000 412 502 630 718 2410 8140 10800 18600 32300

A total of 189 rows are displayed for years 1931 through 2019.